sensor_id;sensor_type;location;lat;lon;timestamp;P1;durP1;ratioP1;P2;durP2;ratioP2
76675;SDS011;69204;55.350;36.906;2023-08-06T00:00:24;25.40;;;13.90;;
76675;SDS011;69204;55.350;36.906;2023-08-06T00:05:26;20.27;;;11.63;;
76675;SDS011;69204;55.350;36.906;2023-08-06T00:10:27;18.03;;;11.47;;
76675;SDS011;69204;55.350;36.906;2023-08-06T00:15:28;18.10;;;11.77;;
76675;SDS011;69204;55.350;36.906;2023-08-06T00:20:29;20.70;;;12.73;;
76675;SDS011;69204;55.350;36.906;2023-08-06T00:25:30;23.45;;;13.45;;
76675;SDS011;69204;55.350;36.906;2023-08-06T00:30:31;21.33;;;13.88;;
76675;SDS011;69204;55.350;36.906;2023-08-06T00:35:32;25.43;;;14.30;;
76675;SDS011;69204;55.350;36.906;2023-08-06T00:40:33;20.45;;;13.48;;
76675;SDS011;69204;55.350;36.906;2023-08-06T00:45:34;23.87;;;13.20;;
76675;SDS011;69204;55.350;36.906;2023-08-06T00:50:37;23.90;;;14.25;;
76675;SDS011;69204;55.350;36.906;2023-08-06T00:55:38;26.13;;;16.75;;
76675;SDS011;69204;55.350;36.906;2023-08-06T01:00:39;39.77;;;18.20;;
76675;SDS011;69204;55.350;36.906;2023-08-06T01:05:40;31.80;;;16.45;;
76675;SDS011;69204;55.350;36.906;2023-08-06T01:16:04;27.08;;;14.73;;
76675;SDS011;69204;55.350;36.906;2023-08-06T01:21:07;24.67;;;14.90;;
76675;SDS011;69204;55.350;36.906;2023-08-06T01:31:27;28.23;;;14.77;;
76675;SDS011;69204;55.350;36.906;2023-08-06T01:36:32;28.70;;;13.40;;
76675;SDS011;69204;55.350;36.906;2023-08-06T01:41:33;26.50;;;14.23;;
76675;SDS011;69204;55.350;36.906;2023-08-06T01:46:34;25.23;;;13.27;;
76675;SDS011;69204;55.350;36.906;2023-08-06T01:51:35;25.03;;;12.47;;
76675;SDS011;69204;55.350;36.906;2023-08-06T01:56:35;23.88;;;13.45;;
76675;SDS011;69204;55.350;36.906;2023-08-06T02:01:36;19.03;;;11.43;;
76675;SDS011;69204;55.350;36.906;2023-08-06T02:06:37;26.90;;;12.70;;
76675;SDS011;69204;55.350;36.906;2023-08-06T02:11:38;21.63;;;12.47;;
76675;SDS011;69204;55.350;36.906;2023-08-06T02:16:39;20.23;;;12.90;;
76675;SDS011;69204;55.350;36.906;2023-08-06T02:21:40;17.33;;;11.30;;
76675;SDS011;69204;55.350;36.906;2023-08-06T02:26:41;16.70;;;10.40;;
76675;SDS011;69204;55.350;36.906;2023-08-06T02:31:42;19.73;;;10.98;;
76675;SDS011;69204;55.350;36.906;2023-08-06T02:36:43;17.25;;;10.90;;
76675;SDS011;69204;55.350;36.906;2023-08-06T02:41:44;16.87;;;9.63;;
76675;SDS011;69204;55.350;36.906;2023-08-06T02:46:45;17.73;;;8.48;;
76675;SDS011;69204;55.350;36.906;2023-08-06T02:51:46;11.43;;;7.57;;
76675;SDS011;69204;55.350;36.906;2023-08-06T02:56:47;15.40;;;7.90;;
76675;SDS011;69204;55.350;36.906;2023-08-06T03:01:48;11.23;;;7.17;;
76675;SDS011;69204;55.350;36.906;2023-08-06T03:06:49;11.88;;;7.10;;
76675;SDS011;69204;55.350;36.906;2023-08-06T03:11:51;11.25;;;6.88;;
76675;SDS011;69204;55.350;36.906;2023-08-06T03:16:52;16.07;;;7.50;;
76675;SDS011;69204;55.350;36.906;2023-08-06T03:21:53;12.38;;;6.95;;
76675;SDS011;69204;55.350;36.906;2023-08-06T03:26:54;12.77;;;6.60;;
76675;SDS011;69204;55.350;36.906;2023-08-06T03:31:55;16.23;;;7.00;;
76675;SDS011;69204;55.350;36.906;2023-08-06T03:36:56;12.30;;;7.23;;
76675;SDS011;69204;55.350;36.906;2023-08-06T03:41:57;14.57;;;6.93;;
76675;SDS011;69204;55.350;36.906;2023-08-06T03:46:58;11.27;;;7.37;;
76675;SDS011;69204;55.350;36.906;2023-08-06T03:51:59;14.07;;;7.30;;
76675;SDS011;69204;55.350;36.906;2023-08-06T03:57:00;10.90;;;6.73;;
76675;SDS011;69204;55.350;36.906;2023-08-06T04:02:01;12.05;;;7.35;;
76675;SDS011;69204;55.350;36.906;2023-08-06T04:07:02;15.97;;;8.57;;
76675;SDS011;69204;55.350;36.906;2023-08-06T04:12:03;18.97;;;10.40;;
76675;SDS011;69204;55.350;36.906;2023-08-06T04:17:05;16.15;;;10.20;;
76675;SDS011;69204;55.350;36.906;2023-08-06T04:22:06;18.63;;;13.63;;
76675;SDS011;69204;55.350;36.906;2023-08-06T04:27:07;23.08;;;11.52;;
76675;SDS011;69204;55.350;36.906;2023-08-06T04:32:10;16.40;;;12.38;;
76675;SDS011;69204;55.350;36.906;2023-08-06T04:37:11;14.57;;;9.90;;
76675;SDS011;69204;55.350;36.906;2023-08-06T04:42:12;14.37;;;11.03;;
76675;SDS011;69204;55.350;36.906;2023-08-06T04:47:13;15.05;;;10.55;;
76675;SDS011;69204;55.350;36.906;2023-08-06T04:52:14;13.10;;;8.97;;
76675;SDS011;69204;55.350;36.906;2023-08-06T04:57:14;14.73;;;8.57;;
76675;SDS011;69204;55.350;36.906;2023-08-06T05:02:15;12.85;;;7.30;;
76675;SDS011;69204;55.350;36.906;2023-08-06T05:07:16;9.97;;;6.70;;
76675;SDS011;69204;55.350;36.906;2023-08-06T05:12:17;10.23;;;6.60;;
76675;SDS011;69204;55.350;36.906;2023-08-06T05:17:18;10.10;;;6.43;;
76675;SDS011;69204;55.350;36.906;2023-08-06T05:22:19;10.07;;;6.53;;
76675;SDS011;69204;55.350;36.906;2023-08-06T05:27:20;10.57;;;6.55;;
76675;SDS011;69204;55.350;36.906;2023-08-06T05:32:21;9.97;;;5.70;;
76675;SDS011;69204;55.350;36.906;2023-08-06T05:37:22;13.00;;;6.15;;
76675;SDS011;69204;55.350;36.906;2023-08-06T05:42:23;9.20;;;5.80;;
76675;SDS011;69204;55.350;36.906;2023-08-06T05:47:24;11.43;;;5.90;;
76675;SDS011;69204;55.350;36.906;2023-08-06T05:52:25;10.50;;;6.00;;
76675;SDS011;69204;55.350;36.906;2023-08-06T05:57:26;10.15;;;5.60;;
76675;SDS011;69204;55.350;36.906;2023-08-06T06:02:27;7.85;;;5.20;;
76675;SDS011;69204;55.350;36.906;2023-08-06T06:07:28;10.20;;;5.37;;
76675;SDS011;69204;55.350;36.906;2023-08-06T06:12:29;12.25;;;5.40;;
76675;SDS011;69204;55.350;36.906;2023-08-06T06:17:30;17.17;;;6.10;;
76675;SDS011;69204;55.350;36.906;2023-08-06T06:22:31;17.93;;;5.23;;
76675;SDS011;69204;55.350;36.906;2023-08-06T06:27:32;10.55;;;5.13;;
76675;SDS011;69204;55.350;36.906;2023-08-06T06:32:33;8.00;;;4.67;;
76675;SDS011;69204;55.350;36.906;2023-08-06T06:37:34;10.68;;;4.82;;
76675;SDS011;69204;55.350;36.906;2023-08-06T06:42:35;11.10;;;5.32;;
76675;SDS011;69204;55.350;36.906;2023-08-06T06:47:36;13.07;;;4.93;;
76675;SDS011;69204;55.350;36.906;2023-08-06T06:52:37;9.10;;;5.07;;
76675;SDS011;69204;55.350;36.906;2023-08-06T06:57:38;11.23;;;4.93;;
76675;SDS011;69204;55.350;36.906;2023-08-06T07:02:39;11.15;;;4.93;;
76675;SDS011;69204;55.350;36.906;2023-08-06T07:07:41;9.38;;;4.90;;
76675;SDS011;69204;55.350;36.906;2023-08-06T07:12:42;8.13;;;5.03;;
76675;SDS011;69204;55.350;36.906;2023-08-06T07:17:43;8.98;;;5.00;;
76675;SDS011;69204;55.350;36.906;2023-08-06T07:22:44;10.43;;;5.27;;
76675;SDS011;69204;55.350;36.906;2023-08-06T07:27:45;8.03;;;5.20;;
76675;SDS011;69204;55.350;36.906;2023-08-06T07:32:46;8.45;;;4.40;;
76675;SDS011;69204;55.350;36.906;2023-08-06T07:37:47;7.80;;;4.17;;
76675;SDS011;69204;55.350;36.906;2023-08-06T07:42:48;10.95;;;4.90;;
76675;SDS011;69204;55.350;36.906;2023-08-06T07:47:49;11.20;;;4.95;;
76675;SDS011;69204;55.350;36.906;2023-08-06T07:52:50;9.23;;;4.70;;
76675;SDS011;69204;55.350;36.906;2023-08-06T07:57:51;8.15;;;5.20;;
76675;SDS011;69204;55.350;36.906;2023-08-06T08:02:52;11.27;;;4.73;;
76675;SDS011;69204;55.350;36.906;2023-08-06T08:07:53;11.25;;;5.40;;
76675;SDS011;69204;55.350;36.906;2023-08-06T08:12:54;8.00;;;5.23;;
76675;SDS011;69204;55.350;36.906;2023-08-06T08:17:54;10.60;;;5.40;;
76675;SDS011;69204;55.350;36.906;2023-08-06T08:22:56;10.02;;;5.50;;
76675;SDS011;69204;55.350;36.906;2023-08-06T08:27:57;13.97;;;5.47;;
76675;SDS011;69204;55.350;36.906;2023-08-06T08:32:58;10.00;;;5.30;;
76675;SDS011;69204;55.350;36.906;2023-08-06T08:37:59;8.17;;;5.53;;
76675;SDS011;69204;55.350;36.906;2023-08-06T08:43:00;9.33;;;5.80;;
76675;SDS011;69204;55.350;36.906;2023-08-06T08:48:02;11.07;;;5.70;;
76675;SDS011;69204;55.350;36.906;2023-08-06T08:53:03;16.97;;;6.50;;
76675;SDS011;69204;55.350;36.906;2023-08-06T08:58:05;10.32;;;6.28;;
76675;SDS011;69204;55.350;36.906;2023-08-06T09:03:06;11.25;;;6.65;;
76675;SDS011;69204;55.350;36.906;2023-08-06T09:08:07;8.47;;;6.53;;
76675;SDS011;69204;55.350;36.906;2023-08-06T09:13:09;11.20;;;7.40;;
76675;SDS011;69204;55.350;36.906;2023-08-06T09:18:12;12.47;;;6.80;;
76675;SDS011;69204;55.350;36.906;2023-08-06T09:23:14;9.80;;;7.07;;
76675;SDS011;69204;55.350;36.906;2023-08-06T09:28:15;11.25;;;7.05;;
76675;SDS011;69204;55.350;36.906;2023-08-06T09:33:19;10.23;;;6.97;;
76675;SDS011;69204;55.350;36.906;2023-08-06T09:38:20;16.63;;;7.70;;
76675;SDS011;69204;55.350;36.906;2023-08-06T09:43:22;11.15;;;8.30;;
76675;SDS011;69204;55.350;36.906;2023-08-06T09:48:23;13.05;;;8.68;;
76675;SDS011;69204;55.350;36.906;2023-08-06T09:53:25;15.27;;;8.57;;
76675;SDS011;69204;55.350;36.906;2023-08-06T09:58:26;15.98;;;10.50;;
76675;SDS011;69204;55.350;36.906;2023-08-06T10:03:27;22.67;;;19.53;;
76675;SDS011;69204;55.350;36.906;2023-08-06T10:08:29;26.10;;;18.80;;
76675;SDS011;69204;55.350;36.906;2023-08-06T10:13:31;24.58;;;19.80;;
76675;SDS011;69204;55.350;36.906;2023-08-06T10:18:33;41.60;;;36.57;;
76675;SDS011;69204;55.350;36.906;2023-08-06T10:23:39;20.40;;;16.05;;
76675;SDS011;69204;55.350;36.906;2023-08-06T10:28:41;12.65;;;9.35;;
76675;SDS011;69204;55.350;36.906;2023-08-06T10:33:46;11.47;;;8.27;;
76675;SDS011;69204;55.350;36.906;2023-08-06T10:38:49;18.00;;;9.40;;
76675;SDS011;69204;55.350;36.906;2023-08-06T10:43:50;13.90;;;8.45;;
76675;SDS011;69204;55.350;36.906;2023-08-06T10:48:52;12.33;;;8.67;;
76675;SDS011;69204;55.350;36.906;2023-08-06T10:53:53;13.65;;;8.35;;
76675;SDS011;69204;55.350;36.906;2023-08-06T10:58:55;13.10;;;7.28;;
76675;SDS011;69204;55.350;36.906;2023-08-06T11:04:00;10.90;;;7.50;;
76675;SDS011;69204;55.350;36.906;2023-08-06T11:09:03;11.45;;;7.40;;
76675;SDS011;69204;55.350;36.906;2023-08-06T11:14:03;10.95;;;6.88;;
76675;SDS011;69204;55.350;36.906;2023-08-06T11:19:04;9.37;;;7.23;;
76675;SDS011;69204;55.350;36.906;2023-08-06T11:24:08;9.50;;;7.10;;
76675;SDS011;69204;55.350;36.906;2023-08-06T11:29:10;9.90;;;6.82;;
76675;SDS011;69204;55.350;36.906;2023-08-06T11:34:11;13.40;;;7.20;;
76675;SDS011;69204;55.350;36.906;2023-08-06T11:39:12;9.80;;;7.43;;
76675;SDS011;69204;55.350;36.906;2023-08-06T11:44:14;10.90;;;6.50;;
76675;SDS011;69204;55.350;36.906;2023-08-06T11:49:15;9.63;;;6.57;;
76675;SDS011;69204;55.350;36.906;2023-08-06T11:54:16;9.63;;;6.38;;
76675;SDS011;69204;55.350;36.906;2023-08-06T11:59:34;11.68;;;6.43;;
76675;SDS011;69204;55.350;36.906;2023-08-06T12:10:02;8.90;;;6.13;;
76675;SDS011;69204;55.350;36.906;2023-08-06T12:15:05;13.15;;;5.85;;
76675;SDS011;69204;55.350;36.906;2023-08-06T12:20:08;9.07;;;6.17;;
76675;SDS011;69204;55.350;36.906;2023-08-06T12:25:10;9.98;;;6.75;;
76675;SDS011;69204;55.350;36.906;2023-08-06T12:30:15;12.27;;;6.20;;
76675;SDS011;69204;55.350;36.906;2023-08-06T12:35:17;12.20;;;6.80;;
76675;SDS011;69204;55.350;36.906;2023-08-06T12:40:20;12.18;;;6.30;;
76675;SDS011;69204;55.350;36.906;2023-08-06T12:45:21;10.02;;;6.15;;
76675;SDS011;69204;55.350;36.906;2023-08-06T12:50:24;10.00;;;7.07;;
76675;SDS011;69204;55.350;36.906;2023-08-06T12:55:25;7.40;;;5.63;;
76675;SDS011;69204;55.350;36.906;2023-08-06T13:00:26;9.00;;;5.63;;
76675;SDS011;69204;55.350;36.906;2023-08-06T13:05:27;9.07;;;5.80;;
76675;SDS011;69204;55.350;36.906;2023-08-06T13:10:28;10.98;;;6.53;;
76675;SDS011;69204;55.350;36.906;2023-08-06T13:15:29;11.27;;;5.70;;
76675;SDS011;69204;55.350;36.906;2023-08-06T13:20:30;14.23;;;5.57;;
76675;SDS011;69204;55.350;36.906;2023-08-06T13:25:31;17.00;;;6.25;;
76675;SDS011;69204;55.350;36.906;2023-08-06T13:30:37;10.37;;;5.90;;
76675;SDS011;69204;55.350;36.906;2023-08-06T13:35:42;10.83;;;5.70;;
76675;SDS011;69204;55.350;36.906;2023-08-06T13:40:43;13.65;;;6.03;;
76675;SDS011;69204;55.350;36.906;2023-08-06T13:45:44;9.63;;;5.67;;
76675;SDS011;69204;55.350;36.906;2023-08-06T13:50:46;10.67;;;5.40;;
76675;SDS011;69204;55.350;36.906;2023-08-06T13:55:46;7.88;;;5.10;;
76675;SDS011;69204;55.350;36.906;2023-08-06T14:00:47;10.07;;;6.40;;
76675;SDS011;69204;55.350;36.906;2023-08-06T14:05:48;8.52;;;5.50;;
76675;SDS011;69204;55.350;36.906;2023-08-06T14:10:51;8.27;;;5.37;;
76675;SDS011;69204;55.350;36.906;2023-08-06T14:15:52;10.03;;;5.90;;
76675;SDS011;69204;55.350;36.906;2023-08-06T14:20:53;16.40;;;5.78;;
76675;SDS011;69204;55.350;36.906;2023-08-06T14:25:54;31.73;;;18.03;;
76675;SDS011;69204;55.350;36.906;2023-08-06T14:30:56;14.13;;;8.30;;
76675;SDS011;69204;55.350;36.906;2023-08-06T14:35:57;11.18;;;7.30;;
76675;SDS011;69204;55.350;36.906;2023-08-06T14:40:58;12.20;;;6.55;;
76675;SDS011;69204;55.350;36.906;2023-08-06T14:46:00;10.87;;;6.50;;
76675;SDS011;69204;55.350;36.906;2023-08-06T14:51:01;12.88;;;6.60;;
76675;SDS011;69204;55.350;36.906;2023-08-06T14:56:02;9.17;;;5.70;;
76675;SDS011;69204;55.350;36.906;2023-08-06T15:01:03;9.50;;;6.13;;
76675;SDS011;69204;55.350;36.906;2023-08-06T15:06:04;10.73;;;6.22;;
76675;SDS011;69204;55.350;36.906;2023-08-06T15:11:05;22.60;;;6.27;;
76675;SDS011;69204;55.350;36.906;2023-08-06T15:16:06;10.13;;;5.93;;
76675;SDS011;69204;55.350;36.906;2023-08-06T15:21:07;10.75;;;5.70;;
76675;SDS011;69204;55.350;36.906;2023-08-06T15:26:08;15.13;;;6.47;;
76675;SDS011;69204;55.350;36.906;2023-08-06T15:31:09;13.45;;;7.20;;
76675;SDS011;69204;55.350;36.906;2023-08-06T15:36:10;10.53;;;6.70;;
76675;SDS011;69204;55.350;36.906;2023-08-06T15:41:11;11.40;;;6.93;;
76675;SDS011;69204;55.350;36.906;2023-08-06T15:46:12;8.98;;;5.93;;
76675;SDS011;69204;55.350;36.906;2023-08-06T15:51:15;13.73;;;5.90;;
76675;SDS011;69204;55.350;36.906;2023-08-06T15:56:16;15.57;;;7.35;;
76675;SDS011;69204;55.350;36.906;2023-08-06T16:01:17;9.17;;;6.80;;
76675;SDS011;69204;55.350;36.906;2023-08-06T16:06:18;16.40;;;6.78;;
76675;SDS011;69204;55.350;36.906;2023-08-06T16:11:19;11.18;;;7.05;;
76675;SDS011;69204;55.350;36.906;2023-08-06T16:16:20;12.30;;;6.70;;
76675;SDS011;69204;55.350;36.906;2023-08-06T16:21:21;16.38;;;6.65;;
76675;SDS011;69204;55.350;36.906;2023-08-06T16:26:22;11.43;;;7.00;;
76675;SDS011;69204;55.350;36.906;2023-08-06T16:31:24;19.05;;;7.60;;
76675;SDS011;69204;55.350;36.906;2023-08-06T16:36:25;11.52;;;6.88;;
76675;SDS011;69204;55.350;36.906;2023-08-06T16:41:26;13.73;;;7.50;;
76675;SDS011;69204;55.350;36.906;2023-08-06T16:46:27;17.48;;;7.32;;
76675;SDS011;69204;55.350;36.906;2023-08-06T16:51:29;18.87;;;7.50;;
76675;SDS011;69204;55.350;36.906;2023-08-06T16:56:30;14.57;;;7.40;;
76675;SDS011;69204;55.350;36.906;2023-08-06T17:01:31;13.10;;;7.32;;
76675;SDS011;69204;55.350;36.906;2023-08-06T17:06:32;15.80;;;8.20;;
76675;SDS011;69204;55.350;36.906;2023-08-06T17:11:33;23.38;;;10.13;;
76675;SDS011;69204;55.350;36.906;2023-08-06T17:16:34;15.27;;;10.57;;
76675;SDS011;69204;55.350;36.906;2023-08-06T17:21:35;22.20;;;9.77;;
76675;SDS011;69204;55.350;36.906;2023-08-06T17:26:38;17.50;;;10.40;;
76675;SDS011;69204;55.350;36.906;2023-08-06T17:31:39;27.17;;;15.13;;
76675;SDS011;69204;55.350;36.906;2023-08-06T17:36:40;23.65;;;11.95;;
76675;SDS011;69204;55.350;36.906;2023-08-06T17:41:41;17.87;;;12.30;;
76675;SDS011;69204;55.350;36.906;2023-08-06T17:46:42;24.20;;;15.70;;
76675;SDS011;69204;55.350;36.906;2023-08-06T17:51:43;26.52;;;14.82;;
76675;SDS011;69204;55.350;36.906;2023-08-06T17:56:44;31.57;;;16.33;;
76675;SDS011;69204;55.350;36.906;2023-08-06T18:01:45;27.63;;;13.50;;
76675;SDS011;69204;55.350;36.906;2023-08-06T18:06:46;18.10;;;11.90;;
76675;SDS011;69204;55.350;36.906;2023-08-06T18:11:47;16.27;;;10.20;;
76675;SDS011;69204;55.350;36.906;2023-08-06T18:16:51;18.73;;;10.15;;
76675;SDS011;69204;55.350;36.906;2023-08-06T18:21:52;14.00;;;10.00;;
76675;SDS011;69204;55.350;36.906;2023-08-06T18:26:53;17.90;;;10.32;;
76675;SDS011;69204;55.350;36.906;2023-08-06T18:31:54;16.27;;;11.70;;
76675;SDS011;69204;55.350;36.906;2023-08-06T18:36:55;16.83;;;10.23;;
76675;SDS011;69204;55.350;36.906;2023-08-06T18:41:56;15.57;;;9.87;;
76675;SDS011;69204;55.350;36.906;2023-08-06T18:46:57;15.00;;;8.53;;
76675;SDS011;69204;55.350;36.906;2023-08-06T18:51:59;11.85;;;7.90;;
76675;SDS011;69204;55.350;36.906;2023-08-06T18:57:00;15.87;;;8.70;;
76675;SDS011;69204;55.350;36.906;2023-08-06T19:02:03;13.65;;;8.05;;
76675;SDS011;69204;55.350;36.906;2023-08-06T19:07:06;10.85;;;7.05;;
76675;SDS011;69204;55.350;36.906;2023-08-06T19:12:07;12.50;;;7.17;;
76675;SDS011;69204;55.350;36.906;2023-08-06T19:17:08;10.50;;;6.70;;
76675;SDS011;69204;55.350;36.906;2023-08-06T19:22:10;16.60;;;7.30;;
76675;SDS011;69204;55.350;36.906;2023-08-06T19:27:12;12.57;;;6.35;;
76675;SDS011;69204;55.350;36.906;2023-08-06T19:32:13;12.95;;;7.53;;
76675;SDS011;69204;55.350;36.906;2023-08-06T19:37:15;11.30;;;6.87;;
76675;SDS011;69204;55.350;36.906;2023-08-06T19:42:17;12.43;;;6.88;;
76675;SDS011;69204;55.350;36.906;2023-08-06T19:47:18;12.93;;;6.30;;
76675;SDS011;69204;55.350;36.906;2023-08-06T19:52:19;9.52;;;6.20;;
76675;SDS011;69204;55.350;36.906;2023-08-06T19:57:20;10.90;;;5.87;;
76675;SDS011;69204;55.350;36.906;2023-08-06T20:02:21;8.18;;;5.90;;
76675;SDS011;69204;55.350;36.906;2023-08-06T20:07:21;8.20;;;5.68;;
76675;SDS011;69204;55.350;36.906;2023-08-06T20:12:22;7.13;;;5.20;;
76675;SDS011;69204;55.350;36.906;2023-08-06T20:17:24;8.75;;;5.63;;
76675;SDS011;69204;55.350;36.906;2023-08-06T20:22:25;9.67;;;5.80;;
76675;SDS011;69204;55.350;36.906;2023-08-06T20:27:25;13.63;;;6.00;;
76675;SDS011;69204;55.350;36.906;2023-08-06T20:32:27;12.15;;;5.70;;
76675;SDS011;69204;55.350;36.906;2023-08-06T20:37:27;7.90;;;4.70;;
76675;SDS011;69204;55.350;36.906;2023-08-06T20:42:29;7.57;;;4.90;;
76675;SDS011;69204;55.350;36.906;2023-08-06T20:47:30;8.83;;;4.80;;
76675;SDS011;69204;55.350;36.906;2023-08-06T20:52:30;19.45;;;5.20;;
76675;SDS011;69204;55.350;36.906;2023-08-06T20:57:31;8.33;;;4.53;;
76675;SDS011;69204;55.350;36.906;2023-08-06T21:02:32;10.77;;;4.97;;
76675;SDS011;69204;55.350;36.906;2023-08-06T21:07:33;10.97;;;5.00;;
76675;SDS011;69204;55.350;36.906;2023-08-06T21:12:34;7.75;;;4.60;;
76675;SDS011;69204;55.350;36.906;2023-08-06T21:17:35;9.05;;;4.53;;
76675;SDS011;69204;55.350;36.906;2023-08-06T21:22:36;8.13;;;5.10;;
76675;SDS011;69204;55.350;36.906;2023-08-06T21:27:37;8.43;;;4.55;;
76675;SDS011;69204;55.350;36.906;2023-08-06T21:32:39;9.43;;;5.27;;
76675;SDS011;69204;55.350;36.906;2023-08-06T21:37:40;11.13;;;4.95;;
76675;SDS011;69204;55.350;36.906;2023-08-06T21:42:43;9.93;;;4.93;;
76675;SDS011;69204;55.350;36.906;2023-08-06T21:47:45;11.70;;;5.07;;
76675;SDS011;69204;55.350;36.906;2023-08-06T21:52:46;7.47;;;4.93;;
76675;SDS011;69204;55.350;36.906;2023-08-06T21:57:48;8.17;;;4.90;;
76675;SDS011;69204;55.350;36.906;2023-08-06T22:02:49;8.77;;;5.13;;
76675;SDS011;69204;55.350;36.906;2023-08-06T22:07:50;18.40;;;5.20;;
76675;SDS011;69204;55.350;36.906;2023-08-06T22:12:51;10.63;;;5.00;;
76675;SDS011;69204;55.350;36.906;2023-08-06T22:17:52;9.60;;;5.10;;
76675;SDS011;69204;55.350;36.906;2023-08-06T22:22:53;15.47;;;5.83;;
76675;SDS011;69204;55.350;36.906;2023-08-06T22:27:54;13.80;;;5.95;;
76675;SDS011;69204;55.350;36.906;2023-08-06T22:32:55;13.73;;;6.17;;
76675;SDS011;69204;55.350;36.906;2023-08-06T22:37:56;13.48;;;6.43;;
76675;SDS011;69204;55.350;36.906;2023-08-06T22:42:57;12.73;;;5.18;;
76675;SDS011;69204;55.350;36.906;2023-08-06T22:47:58;8.77;;;4.50;;
76675;SDS011;69204;55.350;36.906;2023-08-06T22:52:59;9.50;;;5.10;;
76675;SDS011;69204;55.350;36.906;2023-08-06T22:58:00;11.00;;;5.20;;
76675;SDS011;69204;55.350;36.906;2023-08-06T23:03:01;9.25;;;5.53;;
76675;SDS011;69204;55.350;36.906;2023-08-06T23:08:02;11.13;;;5.70;;
76675;SDS011;69204;55.350;36.906;2023-08-06T23:13:04;17.15;;;6.55;;
76675;SDS011;69204;55.350;36.906;2023-08-06T23:18:07;14.75;;;6.40;;
76675;SDS011;69204;55.350;36.906;2023-08-06T23:23:08;13.73;;;6.50;;
76675;SDS011;69204;55.350;36.906;2023-08-06T23:28:09;10.60;;;5.47;;
76675;SDS011;69204;55.350;36.906;2023-08-06T23:33:09;10.97;;;6.03;;
76675;SDS011;69204;55.350;36.906;2023-08-06T23:38:10;12.20;;;5.68;;
76675;SDS011;69204;55.350;36.906;2023-08-06T23:43:11;11.77;;;5.93;;
76675;SDS011;69204;55.350;36.906;2023-08-06T23:48:12;9.30;;;5.13;;
76675;SDS011;69204;55.350;36.906;2023-08-06T23:53:13;10.20;;;6.07;;
76675;SDS011;69204;55.350;36.906;2023-08-06T23:58:14;10.35;;;6.00;;
